Time;durP1;ratioP1;P1;durP2;ratioP2;P2;SDS_P1;SDS_P2;PMS_P1;PMS_P2;Temp;Humidity;BMP_temperature;BMP_pressure;BME280_temperature;BME280_humidity;BME280_pressure;Samples;Min_cycle;Max_cycle;Signal;HPM_P1;HPM_P2
2019/04/16 00:28:42;;;;;;;20.1;17.4;;;;;;;7.38;53.85352;959.9691;;;;
2019/04/16 00:31:07;;;;;;;19.7;17.6;;;;;;;7.3;54.12988;960.0268;;;;
2019/04/16 00:33:38;;;;;;;20.1;17.9;;;;;;;7.31;54.83887;960.0002;;;;
2019/04/16 00:36:18;;;;;;;19.4;17.3;;;;;;;7.3;53.42188;960.0097;;;;
2019/04/16 00:38:57;;;;;;;20.3;18.1;;;;;;;7.25;55.10547;960.0136;;;;
2019/04/16 00:41:37;;;;;;;19.7;17.5;;;;;;;7.22;53.45801;960.024;;;;
2019/04/16 00:44:16;;;;;;;20;17.9;;;;;;;7.2;54.67578;959.9867;;;;
2019/04/16 00:46:56;;;;;;;19.8;17.7;;;;;;;7.15;56.02832;959.9777;;;;
2019/04/16 00:49:35;;;;;;;21.2;18.5;;;;;;;7.09;55.48438;959.9819;;;;
2019/04/16 00:52:15;;;;;;;20;17.9;;;;;;;7.06;55.43555;959.997;;;;
2019/04/16 00:54:54;;;;;;;20.2;18;;;;;;;7.09;54.85645;959.9647;;;;
2019/04/16 00:57:34;;;;;;;18.4;16.5;;;;;;;7.16;53.83789;960.0027;;;;
2019/04/16 01:00:13;;;;;;;19.5;16.8;;;;;;;7.11;54.4707;959.9498;;;;
2019/04/16 01:02:53;;;;;;;18.5;16.5;;;;;;;7.13;54.05078;959.983;;;;
2019/04/16 01:05:32;;;;;;;19.5;17.4;;;;;;;7.08;54.1709;959.991;;;;
2019/04/16 01:08:12;;;;;;;19.9;17.8;;;;;;;7.07;55.80078;960.0571;;;;
2019/04/16 01:10:51;;;;;;;19.1;17;;;;;;;7.07;54.05371;960.1219;;;;
2019/04/16 01:13:31;;;;;;;19.2;16.5;;;;;;;7.07;55.05859;960.0829;;;;
2019/04/16 01:16:10;;;;;;;19.9;17.3;;;;;;;7.03;54.7002;960.1548;;;;
2019/04/16 01:18:50;;;;;;;19.2;16.9;;;;;;;7;55.51855;960.1181;;;;
2019/04/16 01:21:29;;;;;;;21;17.8;;;;;;;7.02;55.16699;960.1422;;;;
2019/04/16 01:24:09;;;;;;;19.3;17.2;;;;;;;7.06;54.09863;960.1744;;;;
2019/04/16 01:26:48;;;;;;;19.8;17.3;;;;;;;7.01;54.8916;960.1906;;;;
2019/04/16 01:29:28;;;;;;;19.8;17.3;;;;;;;7;54.82227;960.2219;;;;
2019/04/16 01:35:47;;;;;;;19.4;17.4;;;;;;;6.92;54.98242;960.1931;;;;
2019/04/16 01:38:59;;;;;;;19.4;17.4;;;;;;;6.82;55.41602;960.1267;;;;
2019/04/16 01:42:10;;;;;;;21.9;17.5;;;;;;;6.84;54.80078;960.1125;;;;
2019/04/16 01:45:20;;;;;;;20;17.9;;;;;;;6.81;55.31055;960.1317;;;;
2019/04/16 01:48:30;;;;;;;19.5;17.4;;;;;;;6.86;54.83789;960.158;;;;
2019/04/16 01:51:40;;;;;;;19.3;17.2;;;;;;;6.81;55.91602;960.1141;;;;
2019/04/16 01:54:50;;;;;;;19.6;17.5;;;;;;;6.78;55.83203;960.0909;;;;
2019/04/16 01:58:00;;;;;;;20.1;18;;;;;;;6.7;56.05078;960.0919;;;;
2019/04/16 02:01:10;;;;;;;20;17.9;;;;;;;6.69;56.25293;960.0887;;;;
2019/04/16 02:04:20;;;;;;;20.2;18.1;;;;;;;6.68;56.03613;960.0204;;;;
2019/04/16 02:07:29;;;;;;;20;17.8;;;;;;;6.67;55.84082;960.0078;;;;
2019/04/16 02:10:41;;;;;;;20.1;18;;;;;;;6.64;56.56543;960.0011;;;;
2019/04/16 02:13:51;;;;;;;20;18;;;;;;;6.5;57.20801;960.0417;;;;
2019/04/16 02:17:00;;;;;;;20.4;18.3;;;;;;;6.45;57.25879;960.0229;;;;
2019/04/16 02:20:10;;;;;;;20.5;18.3;;;;;;;6.43;57.39258;960.0552;;;;
2019/04/16 02:23:20;;;;;;;21;18.8;;;;;;;6.43;57.68848;960.0811;;;;
2019/04/16 02:26:30;;;;;;;20.3;18.3;;;;;;;6.39;58.02734;960.088;;;;
2019/04/16 02:29:40;;;;;;;20.5;18.3;;;;;;;6.31;59.25879;960.072;;;;
2019/04/16 02:32:50;;;;;;;21.2;18.3;;;;;;;6.38;57.8877;960.1191;;;;
2019/04/16 02:36:00;;;;;;;20.2;18;;;;;;;6.39;57.78809;960.1097;;;;
2019/04/16 02:39:10;;;;;;;21.3;19;;;;;;;6.34;57.94043;960.1257;;;;
2019/04/16 02:42:20;;;;;;;20.1;18;;;;;;;6.33;57.6084;960.1652;;;;
2019/04/16 02:45:29;;;;;;;21.4;19.1;;;;;;;6.24;58.16602;960.2363;;;;
2019/04/16 02:48:39;;;;;;;21.1;18.8;;;;;;;6.23;57.68652;960.1852;;;;
2019/04/16 02:52:40;;;;;;;20;17.9;;;;;;;6.24;58.22266;960.3011;;;;
2019/04/16 02:58:03;;;;;;;20.4;18.2;;;;;;;6.19;58.60254;960.2355;;;;
2019/04/16 03:04:44;;;;;;;21.6;19.3;;;;;;;6.13;58.4248;960.2653;;;;
2019/04/16 03:07:55;;;;;;;22.4;19.3;;;;;;;6.14;58.31055;960.3256;;;;
2019/04/16 03:11:05;;;;;;;20.4;18.3;;;;;;;6.14;58.87012;960.3597;;;;
2019/04/16 03:14:15;;;;;;;20.6;18.4;;;;;;;6.09;58.63477;960.3157;;;;
2019/04/16 03:17:33;;;;;;;21.7;19.5;;;;;;;5.97;60.09961;960.3582;;;;
2019/04/16 03:20:43;;;;;;;21.4;19.2;;;;;;;6;60.42188;960.3567;;;;
2019/04/16 03:23:53;;;;;;;22.7;20.2;;;;;;;5.98;59.58789;960.3576;;;;
2019/04/16 03:27:03;;;;;;;21.6;19.4;;;;;;;6;59.27148;960.2791;;;;
2019/04/16 03:30:13;;;;;;;22.1;19.7;;;;;;;6.02;59.43555;960.2946;;;;
2019/04/16 03:33:23;;;;;;;22.4;20.1;;;;;;;6.01;59.86523;960.2649;;;;
2019/04/16 03:36:33;;;;;;;22;19.6;;;;;;;5.94;60.04883;960.2097;;;;
2019/04/16 03:39:43;;;;;;;22.7;20.3;;;;;;;5.87;60.89355;960.2442;;;;
2019/04/16 03:42:53;;;;;;;22.7;20.4;;;;;;;5.81;60.8623;960.1836;;;;
2019/04/16 03:46:03;;;;;;;23.5;21.1;;;;;;;5.74;61.23926;960.2356;;;;
2019/04/16 03:49:12;;;;;;;24.1;20.7;;;;;;;5.7;60.95898;960.1437;;;;
2019/04/16 03:52:22;;;;;;;22.7;20.4;;;;;;;5.67;61.05957;960.1192;;;;
2019/04/16 03:55:33;;;;;;;23.6;21.1;;;;;;;5.64;60.86035;960.0438;;;;
2019/04/16 03:58:43;;;;;;;23.3;20.8;;;;;;;5.6;61.58203;960.0251;;;;
2019/04/16 04:06:23;;;;;;;24.6;21.9;;;;;;;5.55;61.84766;959.9771;;;;
2019/04/16 04:09:33;;;;;;;23.7;21.1;;;;;;;5.45;61.11816;959.9185;;;;
2019/04/16 04:12:43;;;;;;;23.6;21.2;;;;;;;5.41;62.41992;959.9384;;;;
2019/04/16 04:15:53;;;;;;;25.8;21.7;;;;;;;5.38;62.24414;960.0051;;;;
2019/04/16 04:19:03;;;;;;;24.6;21.9;;;;;;;5.41;62.55469;960.0853;;;;
2019/04/16 04:22:13;;;;;;;24;21.5;;;;;;;5.43;61.83105;960.0709;;;;
2019/04/16 04:25:24;;;;;;;26.2;23.1;;;;;;;5.39;61.34766;960.0519;;;;
2019/04/16 04:28:34;;;;;;;25.4;22.7;;;;;;;5.36;62.37891;960.0967;;;;
2019/04/16 04:31:44;;;;;;;24.8;22;;;;;;;5.3;62.3125;960.0797;;;;
2019/04/16 04:34:09;;;;;;;25.4;22.7;;;;;;;5.25;62.12305;960.0655;;;;
2019/04/16 04:36:34;;;;;;;26.1;23.1;;;;;;;5.18;62.26074;960.0659;;;;
2019/04/16 04:38:59;;;;;;;25.9;23.1;;;;;;;5.04;63.13867;960.1306;;;;
2019/04/16 04:41:25;;;;;;;25;22.4;;;;;;;5.14;63.0625;960.1628;;;;
2019/04/16 04:43:50;;;;;;;26.4;23.1;;;;;;;5.15;62.39258;960.1626;;;;
2019/04/16 04:46:15;;;;;;;26.3;23.5;;;;;;;5.18;63.2832;960.1436;;;;
2019/04/16 04:48:41;;;;;;;25.3;22.6;;;;;;;5.18;63.27246;960.1306;;;;
2019/04/16 04:51:06;;;;;;;27.1;22.4;;;;;;;5.14;62.7666;960.1845;;;;
2019/04/16 04:53:31;;;;;;;26.1;23.3;;;;;;;5.14;63.13086;960.245;;;;
2019/04/16 04:55:56;;;;;;;27.5;23;;;;;;;5.17;62.63477;960.2389;;;;
2019/04/16 04:58:21;;;;;;;27;23.7;;;;;;;5.09;63.16797;960.3304;;;;
2019/04/16 05:00:46;;;;;;;27.8;23;;;;;;;5.09;63.02051;960.3215;;;;
2019/04/16 05:03:17;;;;;;;26.2;23.4;;;;;;;5.11;62.64746;960.3375;;;;
2019/04/16 05:05:41;;;;;;;25.6;22.9;;;;;;;5.17;63.13477;960.3894;;;;
2019/04/16 05:08:02;;;;;;;27.5;23.6;;;;;;;5.16;62.46289;960.3817;;;;
2019/04/16 05:10:27;;;;;;;27.4;23.5;;;;;;;5.16;64.63281;960.4462;;;;
2019/04/16 05:12:52;;;;;;;25.7;22.9;;;;;;;5.29;63.83496;960.4589;;;;
2019/04/16 05:15:19;;;;;;;26.4;23.4;;;;;;;5.3;63.66602;960.4457;;;;
2019/04/16 05:17:45;;;;;;;26;23.2;;;;;;;5.2;63.06055;960.3786;;;;
2019/04/16 05:20:10;;;;;;;26.4;23.5;;;;;;;5.05;63.69629;960.4442;;;;
2019/04/16 05:22:35;;;;;;;28.2;23.3;;;;;;;5.12;64.52441;960.4318;;;;
2019/04/16 05:25:00;;;;;;;26.2;23.4;;;;;;;5.17;64.00977;960.5186;;;;
2019/04/16 05:27:25;;;;;;;25.9;23.2;;;;;;;5.38;63.1084;960.5181;;;;
2019/04/16 05:29:50;;;;;;;25.9;23.1;;;;;;;5.22;63.05176;960.507;;;;
2019/04/16 05:32:15;;;;;;;27.8;23.2;;;;;;;5.25;63.45313;960.4961;;;;
2019/04/16 05:34:43;;;;;;;27.2;23.4;;;;;;;5.38;63.22168;960.4447;;;;
2019/04/16 05:37:08;;;;;;;26.7;23.7;;;;;;;5.46;62.51855;960.5385;;;;
2019/04/16 05:39:33;;;;;;;27.5;23.3;;;;;;;5.24;62.99805;960.5444;;;;
2019/04/16 05:41:59;;;;;;;26.2;23.5;;;;;;;5.17;63.05469;960.5103;;;;
2019/04/16 05:44:24;;;;;;;26.2;23.4;;;;;;;5.09;63.59961;960.5671;;;;
2019/04/16 05:46:49;;;;;;;29.5;24.6;;;;;;;5.25;63.56738;960.6254;;;;
2019/04/16 05:49:14;;;;;;;27.2;24.2;;;;;;;5.25;63.14648;960.6083;;;;
2019/04/16 05:51:39;;;;;;;27;23.8;;;;;;;5.32;62.55566;960.6596;;;;
2019/04/16 05:54:16;;;;;;;26.7;23.3;;;;;;;5.41;62.5332;960.6842;;;;
2019/04/16 05:56:36;;;;;;;27.8;24;;;;;;;5.42;62.47949;960.718;;;;
2019/04/16 05:58:54;;;;;;;27.6;23.5;;;;;;;5.5;62.5127;960.687;;;;
2019/04/16 06:01:25;;;;;;;27.1;22.9;;;;;;;5.61;61.57324;960.6713;;;;
2019/04/16 06:03:45;;;;;;;26.5;23.6;;;;;;;5.62;62.17676;960.636;;;;
2019/04/16 06:06:10;;;;;;;25.3;22.7;;;;;;;5.59;61.68359;960.6292;;;;
2019/04/16 06:08:35;;;;;;;26.1;23.4;;;;;;;5.59;61.94531;960.6592;;;;
2019/04/16 06:11:01;;;;;;;27.8;24.4;;;;;;;5.59;62.34375;960.6251;;;;
2019/04/16 06:16:12;;;;;;;26;23.2;;;;;;;5.76;62.27734;960.6699;;;;
2019/04/16 06:20:48;;;;;;;26.7;22.8;;;;;;;6;61.10547;960.6796;;;;
2019/04/16 06:25:35;;;;;;;26.3;23.5;;;;;;;6.1;61.22363;960.7766;;;;
2019/04/16 06:30:29;;;;;;;25.8;23.1;;;;;;;6.33;62.14453;960.7867;;;;
2019/04/16 06:37:55;;;;;;;27.2;22.8;;;;;;;6.54;59.99609;960.7254;;;;
2019/04/16 06:41:29;;;;;;;24.6;22;;;;;;;6.77;60.91699;960.7483;;;;
2019/04/16 06:44:51;;;;;;;25.4;22.7;;;;;;;7.03;59.96289;960.8503;;;;
2019/04/16 06:48:04;;;;;;;27.3;22.2;;;;;;;7.13;58.73145;960.8175;;;;
2019/04/16 06:51:36;;;;;;;35.4;22;;;;;;;7.26;58.34961;960.8211;;;;
2019/04/16 06:54:57;;;;;;;31.8;21.8;;;;;;;7.43;57.71094;960.826;;;;
2019/04/16 06:58:18;;;;;;;25.5;21.7;;;;;;;7.51;60.4873;960.8028;;;;
2019/04/16 07:02:16;;;;;;;24.8;22.1;;;;;;;7.6;57.16211;960.822;;;;
2019/04/16 07:04:02;;;;;;;25;21.6;;;;;;;7.49;57.76367;960.8522;;;;
2019/04/16 07:08:00;;;;;;;23.4;20.9;;;;;;;7.64;58.27539;960.8362;;;;
2019/04/16 07:11:10;;;;;;;24.3;21.1;;;;;;;7.6;58.24805;960.7831;;;;
2019/04/16 07:14:21;;;;;;;22.7;20.4;;;;;;;7.62;57.30176;960.8289;;;;
2019/04/16 07:17:31;;;;;;;23.1;20.7;;;;;;;7.94;57.26465;960.7361;;;;
2019/04/16 07:20:40;;;;;;;23.4;20.1;;;;;;;8.18;57.09082;960.7224;;;;
2019/04/16 07:23:50;;;;;;;24.4;20.7;;;;;;;8.3;57.36816;960.7874;;;;
2019/04/16 07:27:00;;;;;;;25.3;20.4;;;;;;;8.61;56.92871;960.7723;;;;
2019/04/16 07:36:50;;;;;;;23.1;20.7;;;;;;;8.72;57.3916;960.9194;;;;
2019/04/16 07:40:15;;;;;;;23.2;20.8;;;;;;;8.67;56.42285;960.932;;;;
2019/04/16 07:47:18;;;;;;;23.5;21;;;;;;;8.87;57.83496;960.8731;;;;
2019/04/16 07:56:31;;;;;;;23.3;20.9;;;;;;;9.19;56.53711;960.7567;;;;
2019/04/16 07:59:41;;;;;;;22.4;19.8;;;;;;;9.37;56.12305;960.7255;;;;
2019/04/16 08:02:51;;;;;;;22.5;20;;;;;;;9.4;55.67871;960.7881;;;;
2019/04/16 08:06:01;;;;;;;22.9;20.4;;;;;;;9.39;57.54883;960.8973;;;;
2019/04/16 08:09:11;;;;;;;27.4;20.6;;;;;;;9.51;54.94824;960.909;;;;
2019/04/16 08:12:21;;;;;;;23.8;20.7;;;;;;;9.64;55.88281;960.8599;;;;
2019/04/16 08:15:31;;;;;;;21.9;19.6;;;;;;;9.7;53.38672;960.8419;;;;
2019/04/16 08:18:49;;;;;;;23.3;20.8;;;;;;;9.58;55.63477;960.7902;;;;
2019/04/16 08:21:58;;;;;;;24.3;21;;;;;;;9.71;54.98438;960.8063;;;;
2019/04/16 08:25:08;;;;;;;21.8;19.6;;;;;;;9.9;55.6416;960.8248;;;;
2019/04/16 08:28:18;;;;;;;23.1;20.8;;;;;;;9.94;53.72559;960.8826;;;;
2019/04/16 08:31:29;;;;;;;22.7;20.5;;;;;;;10.08;53.54883;960.8795;;;;
2019/04/16 08:34:39;;;;;;;22.8;20.3;;;;;;;10.12;53.3584;960.9194;;;;
2019/04/16 08:37:49;;;;;;;22.2;19.9;;;;;;;10.38;54.31055;960.8984;;;;
2019/04/16 08:40:59;;;;;;;23.1;20.7;;;;;;;10.33;52.46387;960.8633;;;;
2019/04/16 08:44:09;;;;;;;22.7;20.4;;;;;;;10.43;53.91406;960.8987;;;;
2019/04/16 08:47:19;;;;;;;22;19.7;;;;;;;10.6;52.88867;960.9792;;;;
2019/04/16 08:50:29;;;;;;;22.7;20.3;;;;;;;10.76;51.36426;960.9269;;;;
2019/04/16 08:53:39;;;;;;;21.6;19.5;;;;;;;10.99;52.02539;960.9805;;;;
2019/04/16 08:56:49;;;;;;;23;20.5;;;;;;;11.09;52.37305;960.9498;;;;
2019/04/16 08:59:59;;;;;;;22.5;20.1;;;;;;;11.21;52.15625;960.9528;;;;
2019/04/16 09:03:09;;;;;;;21.7;19.5;;;;;;;11.36;51.66602;960.8789;;;;
2019/04/16 09:06:19;;;;;;;22.5;20.1;;;;;;;11.37;51.26367;960.769;;;;
2019/04/16 09:09:45;;;;;;;21.9;19.6;;;;;;;11.5;50.44922;960.7836;;;;
2019/04/16 09:12:57;;;;;;;21.6;19.3;;;;;;;11.69;50.33301;960.736;;;;
2019/04/16 09:16:07;;;;;;;22.2;19.9;;;;;;;11.83;50.55566;960.7719;;;;
2019/04/16 09:19:18;;;;;;;22.1;19.9;;;;;;;11.76;50.86035;960.7341;;;;
2019/04/16 09:22:28;;;;;;;20.7;18.6;;;;;;;11.84;50.21191;960.7442;;;;
2019/04/16 09:26:21;;;;;;;21.9;19.7;;;;;;;11.77;51.0127;960.7416;;;;
2019/04/16 09:33:05;;;;;;;22.7;20.4;;;;;;;12.27;49.34863;960.8059;;;;
2019/04/16 09:44:15;;;;;;;22.8;20.5;;;;;;;12.57;49.0127;960.6384;;;;
2019/04/16 09:47:25;;;;;;;24.7;18.9;;;;;;;12.59;50.41309;960.5845;;;;
2019/04/16 09:50:35;;;;;;;32.7;19.9;;;;;;;12.71;48.90137;960.6992;;;;
2019/04/16 09:53:45;;;;;;;24.8;20.5;;;;;;;12.66;49.10352;960.6739;;;;
2019/04/16 09:56:55;;;;;;;22.1;19.4;;;;;;;12.78;48.9541;960.5577;;;;
2019/04/16 10:00:07;;;;;;;21.5;19.4;;;;;;;12.85;49.19434;960.5731;;;;
2019/04/16 10:03:40;;;;;;;22.1;19.8;;;;;;;13.06;48.47754;960.5566;;;;
2019/04/16 10:06:50;;;;;;;22.6;20.2;;;;;;;13.56;49.66895;960.5873;;;;
2019/04/16 10:10:00;;;;;;;24.2;20.1;;;;;;;13.58;48.22266;960.5464;;;;
2019/04/16 10:13:10;;;;;;;29.3;19.6;;;;;;;13.64;47.19824;960.5317;;;;
2019/04/16 10:16:23;;;;;;;22;19.7;;;;;;;13.73;47.1377;960.632;;;;
2019/04/16 10:19:33;;;;;;;22.4;20;;;;;;;13.79;47.08691;960.6174;;;;
2019/04/16 10:22:43;;;;;;;30.8;21;;;;;;;13.84;46.79102;960.5381;;;;
2019/04/16 10:25:53;;;;;;;31.2;20.2;;;;;;;14.05;45.91992;960.5347;;;;
2019/04/16 10:29:06;;;;;;;21.3;19.1;;;;;;;14.22;46.03027;960.4958;;;;
2019/04/16 10:32:16;;;;;;;21.6;19.3;;;;;;;14.43;48.01465;960.4832;;;;
2019/04/16 10:35:26;;;;;;;20.6;18.6;;;;;;;14.58;45.02344;960.4595;;;;
2019/04/16 10:38:55;;;;;;;20.5;18.3;;;;;;;15.09;43.83105;960.5125;;;;
2019/04/16 10:48:52;;;;;;;21.8;19.4;;;;;;;15.74;41.16016;960.4654;;;;
2019/04/16 10:59:51;;;;;;;21.1;19.1;;;;;;;19.2;34.25391;960.4149;;;;
2019/04/16 11:03:08;;;;;;;21.6;19.4;;;;;;;20.72;31.61523;960.3766;;;;
2019/04/16 11:09:45;;;;;;;20.8;18.6;;;;;;;23.54;26.32813;960.303;;;;
2019/04/16 11:12:55;;;;;;;22.2;17.8;;;;;;;24.26;24.76758;960.3265;;;;
2019/04/16 11:16:11;;;;;;;19.1;17.1;;;;;;;24.56;27.71875;960.3508;;;;
2019/04/16 11:19:21;;;;;;;105.7;20.7;;;;;;;25.65;24.66602;960.29;;;;
2019/04/16 11:22:31;;;;;;;20;17.3;;;;;;;26.96;22.0625;960.3121;;;;
2019/04/16 11:25:41;;;;;;;18.7;16.8;;;;;;;25.41;24.52246;960.3211;;;;
2019/04/16 11:28:51;;;;;;;148.7;25.8;;;;;;;26.16;22.8584;960.3019;;;;
2019/04/16 11:32:01;;;;;;;33.5;17.4;;;;;;;26.36;24.49121;960.3668;;;;
2019/04/16 11:35:11;;;;;;;18;16.1;;;;;;;26.63;23.53906;960.2823;;;;
2019/04/16 11:38:21;;;;;;;55.9;17.5;;;;;;;27.27;20.8584;960.2958;;;;
2019/04/16 11:41:31;;;;;;;17.8;15.2;;;;;;;27.15;20.78125;960.3095;;;;
2019/04/16 11:44:41;;;;;;;23.8;17.7;;;;;;;25.49;25.2168;960.2686;;;;
2019/04/16 11:47:51;;;;;;;27.7;17.1;;;;;;;26.61;21.54395;960.2228;;;;
2019/04/16 11:51:01;;;;;;;88.9;21.1;;;;;;;27.93;22.78125;960.1917;;;;
2019/04/16 11:54:11;;;;;;;21.9;15.2;;;;;;;29.63;19.6582;960.1646;;;;
2019/04/16 11:57:20;;;;;;;17.2;15;;;;;;;29.71;20.64746;960.183;;;;
2019/04/16 12:00:45;;;;;;;235.1;27.3;;;;;;;29.05;19.39258;960.2288;;;;
2019/04/16 12:04:01;;;;;;;27.4;17;;;;;;;27.64;22.80176;960.1487;;;;
2019/04/16 12:07:21;;;;;;;317.7;34;;;;;;;27.9;20.82813;960.1295;;;;
2019/04/16 12:11:00;;;;;;;19.6;14;;;;;;;29.01;21.33496;960.1314;;;;
2019/04/16 12:14:22;;;;;;;17.7;14;;;;;;;29.99;19.31348;960.0779;;;;
2019/04/16 12:32:44;;;;;;;14.3;12.8;;;;;;;29.36;18.96191;959.9934;;;;
2019/04/16 12:36:12;;;;;;;13.1;11.7;;;;;;;29.75;17.13965;959.983;;;;
2019/04/16 12:43:10;;;;;;;13.2;11.5;;;;;;;29.64;17.09961;959.916;;;;
2019/04/16 12:46:28;;;;;;;16.1;12.5;;;;;;;29.35;17.54492;959.9142;;;;
2019/04/16 12:53:20;;;;;;;14.4;11.6;;;;;;;28.21;21.18945;959.8303;;;;
2019/04/16 13:00:10;;;;;;;14;10.9;;;;;;;28.36;19.02832;959.8027;;;;
2019/04/16 13:06:49;;;;;;;59.9;12.8;;;;;;;28.19;20.48145;959.8566;;;;
2019/04/16 13:08:36;;;;;;;336.3;31.5;;;;;;;27.62;21.10254;959.7545;;;;
2019/04/16 13:11:53;;;;;;;11.2;10;;;;;;;26.62;21.71191;959.7881;;;;
2019/04/16 13:22:39;;;;;;;14;10;;;;;;;28.92;18.33203;959.7972;;;;
2019/04/16 13:25:57;;;;;;;16.1;8.2;;;;;;;28.74;18.56445;959.8258;;;;
2019/04/16 13:29:12;;;;;;;14.5;8.8;;;;;;;28.23;17.80078;959.8894;;;;
2019/04/16 13:32:22;;;;;;;10;9;;;;;;;27.86;19.27051;959.8152;;;;
2019/04/16 13:34:47;;;;;;;10.5;8.2;;;;;;;27.41;19.45508;959.795;;;;
2019/04/16 13:37:16;;;;;;;22.1;9.1;;;;;;;28.45;20.79395;959.7966;;;;
2019/04/16 13:40:18;;;;;;;987.3;99.5;;;;;;;29.06;17.28125;959.7791;;;;
2019/04/16 13:42:12;;;;;;;17.6;9.1;;;;;;;29.01;19.12695;959.6747;;;;
2019/04/16 13:44:40;;;;;;;9.4;8.4;;;;;;;29.29;16.67773;959.759;;;;
2019/04/16 13:47:02;;;;;;;16.7;8.6;;;;;;;28.55;19.2041;959.7308;;;;
2019/04/16 13:49:33;;;;;;;108.4;15.9;;;;;;;28.87;17.12988;959.7739;;;;
2019/04/16 13:51:54;;;;;;;31.9;10.1;;;;;;;28.63;17.98438;959.7369;;;;
2019/04/16 13:54:42;;;;;;;11.5;9;;;;;;;28.18;17.13965;959.7866;;;;
2019/04/16 13:57:19;;;;;;;12.4;10.1;;;;;;;26.5;19.27148;959.6856;;;;
2019/04/16 13:59:57;;;;;;;13.1;9;;;;;;;27.14;19.12012;959.6049;;;;
2019/04/16 14:02:30;;;;;;;10.8;8.7;;;;;;;27.14;18.70117;959.6544;;;;
2019/04/16 14:04:47;;;;;;;14;9.2;;;;;;;25.95;21.04785;959.5815;;;;
2019/04/16 14:07:30;;;;;;;11.7;10.5;;;;;;;25.21;20.13184;959.6119;;;;
2019/04/16 14:10:02;;;;;;;11.6;10.5;;;;;;;24.48;21.64355;959.6326;;;;
2019/04/16 14:12:38;;;;;;;12.2;9.4;;;;;;;25.31;22.62402;959.5388;;;;
2019/04/16 14:15:03;;;;;;;10.6;9.5;;;;;;;25.43;21.60645;959.6326;;;;
2019/04/16 14:17:41;;;;;;;13.6;10;;;;;;;25.11;20.85352;959.6078;;;;
2019/04/16 14:20:07;;;;;;;13.1;10.4;;;;;;;24.21;23.51855;959.6628;;;;
2019/04/16 14:22:39;;;;;;;13.5;10.8;;;;;;;23.42;24.86328;959.6061;;;;
2019/04/16 14:25:04;;;;;;;13.4;10.7;;;;;;;24.47;25.39746;959.6697;;;;
2019/04/16 14:27:29;;;;;;;16.3;11.8;;;;;;;24.36;26.05566;959.6859;;;;
2019/04/16 14:29:55;;;;;;;18.1;11.9;;;;;;;24.29;23.29688;959.6733;;;;
2019/04/16 14:32:20;;;;;;;14.9;11.2;;;;;;;23.18;24.84961;959.6658;;;;
2019/04/16 14:35:15;;;;;;;15.6;11.4;;;;;;;22.41;25.12598;959.6298;;;;
2019/04/16 14:38:40;;;;;;;11.8;10.2;;;;;;;22.02;25.80176;959.7036;;;;
2019/04/16 14:41:51;;;;;;;12.7;10.3;;;;;;;21.56;26.23438;959.6503;;;;
2019/04/16 14:45:10;;;;;;;12.2;10.5;;;;;;;21.14;28.09668;959.6685;;;;
2019/04/16 14:48:22;;;;;;;13.2;10.5;;;;;;;20.58;30.76953;959.688;;;;
2019/04/16 14:51:32;;;;;;;12.9;11.5;;;;;;;20.24;29.60352;959.7182;;;;
2019/04/16 14:54:50;;;;;;;14;10.9;;;;;;;20.22;27.80273;959.7608;;;;
2019/04/16 14:58:16;;;;;;;12.6;10;;;;;;;20.12;29.36035;959.7643;;;;
2019/04/16 15:02:04;;;;;;;13;10.8;;;;;;;19.69;30.06055;959.7386;;;;
2019/04/16 15:05:30;;;;;;;13.5;10.1;;;;;;;19.6;29.65527;959.7224;;;;
2019/04/16 15:08:49;;;;;;;12;10.8;;;;;;;19.58;28.92578;959.7516;;;;
2019/04/16 15:15:42;;;;;;;14.6;10.6;;;;;;;19.67;31.88184;959.7272;;;;
2019/04/16 15:23:13;;;;;;;16;11.3;;;;;;;19.86;28.59082;959.7083;;;;
2019/04/16 15:34:45;;;;;;;11.8;10.6;;;;;;;19.42;29.18555;959.7888;;;;
2019/04/16 15:38:04;;;;;;;12.4;10.8;;;;;;;19.07;30.20605;959.7037;;;;
2019/04/16 15:41:35;;;;;;;12.3;11;;;;;;;19.19;30.56641;959.7335;;;;
2019/04/16 15:44:49;;;;;;;12.3;11;;;;;;;19.01;31.63281;959.7162;;;;
2019/04/16 15:48:27;;;;;;;12.5;10.3;;;;;;;19;33.24023;959.753;;;;
2019/04/16 15:51:40;;;;;;;14.3;10.3;;;;;;;19.13;30.01074;959.7369;;;;
2019/04/16 15:54:57;;;;;;;12.1;9.8;;;;;;;19.12;29.51758;959.7858;;;;
2019/04/16 16:04:16;;;;;;;13.4;10.5;;;;;;;18.92;29.85645;959.8322;;;;
2019/04/16 16:07:29;;;;;;;12;9.8;;;;;;;18.83;28.94629;959.8261;;;;
2019/04/16 16:10:47;;;;;;;11.4;9.8;;;;;;;18.71;29.02148;959.8181;;;;
2019/04/16 16:13:57;;;;;;;11.3;9.7;;;;;;;18.74;29.58594;959.7883;;;;
2019/04/16 16:17:07;;;;;;;12.2;10.4;;;;;;;18.61;29.58887;959.7947;;;;
2019/04/16 16:20:24;;;;;;;11.4;9.8;;;;;;;18.65;32.62793;959.8337;;;;
2019/04/16 16:23:34;;;;;;;12;10;;;;;;;18.51;31.39844;959.8287;;;;
2019/04/16 16:26:44;;;;;;;12.2;10.2;;;;;;;18.64;32.58008;959.8926;;;;
2019/04/16 16:29:54;;;;;;;9.5;8.5;;;;;;;18.39;31.0625;959.9662;;;;
2019/04/16 16:33:04;;;;;;;10.1;8.3;;;;;;;18.13;28.83008;959.9484;;;;
2019/04/16 16:36:14;;;;;;;9.2;7.6;;;;;;;18.14;29.41699;959.9861;;;;
2019/04/16 16:39:23;;;;;;;10.1;8.4;;;;;;;18.11;30.38672;960.0912;;;;
2019/04/16 16:42:33;;;;;;;9.6;8.6;;;;;;;17.94;31.31152;960.0803;;;;
2019/04/16 16:45:57;;;;;;;13.7;12;;;;;;;17.84;31.33984;960.0697;;;;
2019/04/16 16:49:08;;;;;;;12.8;10.8;;;;;;;17.75;32.7373;960.142;;;;
2019/04/16 16:52:31;;;;;;;9;7.8;;;;;;;17.66;32.47363;960.1476;;;;
2019/04/16 16:55:46;;;;;;;9.5;7.6;;;;;;;17.58;33.15625;960.1572;;;;
2019/04/16 16:59:04;;;;;;;9.3;7.7;;;;;;;17.43;31.63867;960.1121;;;;
2019/04/16 17:02:19;;;;;;;9.9;8.2;;;;;;;17.5;30.75391;960.2321;;;;
2019/04/16 17:05:33;;;;;;;11.1;8;;;;;;;17.28;31.38086;960.2004;;;;
2019/04/16 17:08:43;;;;;;;10.9;8.4;;;;;;;17.21;31.5625;960.3006;;;;
2019/04/16 17:11:53;;;;;;;10.7;7.4;;;;;;;17.13;32.51563;960.2869;;;;
2019/04/16 17:15:03;;;;;;;12.2;7.6;;;;;;;17.19;32.05176;960.3731;;;;
2019/04/16 17:18:13;;;;;;;9.1;7;;;;;;;17.17;35.46289;960.3223;;;;
2019/04/16 17:21:23;;;;;;;10.4;8.1;;;;;;;17.04;34.14453;960.3409;;;;
2019/04/16 17:24:33;;;;;;;9.9;7.8;;;;;;;16.9;34.53027;960.3129;;;;
2019/04/16 17:27:43;;;;;;;13.5;10.3;;;;;;;16.79;34.61523;960.3915;;;;
2019/04/16 17:30:53;;;;;;;14.8;12.2;;;;;;;16.8;34.62695;960.4565;;;;
2019/04/16 17:34:03;;;;;;;15;11.6;;;;;;;16.74;35.69629;960.4802;;;;
2019/04/16 17:37:13;;;;;;;16.4;12.9;;;;;;;16.77;35.11523;960.4984;;;;
2019/04/16 17:40:27;;;;;;;17;13.3;;;;;;;16.74;36.15234;960.5187;;;;
2019/04/16 17:43:44;;;;;;;17.6;12.9;;;;;;;16.76;36.04883;960.5612;;;;
2019/04/16 17:47:06;;;;;;;17.5;14;;;;;;;16.73;35.85938;960.5906;;;;
2019/04/16 17:50:30;;;;;;;20.4;13.3;;;;;;;16.58;36.69922;960.6683;;;;
2019/04/16 17:53:44;;;;;;;18.4;12.7;;;;;;;16.57;36.17285;960.7087;;;;
2019/04/16 18:04:25;;;;;;;17.3;13.1;;;;;;;16.44;37.44629;960.8899;;;;
2019/04/16 18:11:18;;;;;;;18.3;12.5;;;;;;;16.2;38.6377;960.9946;;;;
2019/04/16 18:17:53;;;;;;;15.4;12;;;;;;;16.07;39.16309;961.1008;;;;
2019/04/16 18:22:08;;;;;;;17.9;13;;;;;;;16.01;39.4248;961.1215;;;;
2019/04/16 18:23:53;;;;;;;18.1;14;;;;;;;15.93;39.3125;961.1164;;;;
2019/04/16 18:27:27;;;;;;;15.7;11.3;;;;;;;15.8;39.40625;961.1253;;;;
2019/04/16 18:30:42;;;;;;;16.1;10.9;;;;;;;15.68;39.74414;961.1565;;;;
2019/04/16 18:33:57;;;;;;;15.2;10.6;;;;;;;15.57;40.58398;961.2067;;;;
2019/04/16 18:37:27;;;;;;;12.9;10;;;;;;;15.45;40.49219;961.2106;;;;
2019/04/16 18:44:30;;;;;;;11.8;8.5;;;;;;;15.35;40.08691;961.3525;;;;
2019/04/16 18:49:01;;;;;;;10.9;8.2;;;;;;;15.28;40.12695;961.3635;;;;
2019/04/16 18:50:38;;;;;;;10.4;8.3;;;;;;;15.18;40.44336;961.383;;;;
2019/04/16 18:53:48;;;;;;;11.5;8.4;;;;;;;15.15;40.11523;961.4469;;;;
2019/04/16 18:56:58;;;;;;;15.5;8.9;;;;;;;15.09;40.30762;961.5451;;;;
2019/04/16 19:00:23;;;;;;;14.2;9;;;;;;;15.04;40.1748;961.5283;;;;
2019/04/16 19:03:33;;;;;;;11.6;8.2;;;;;;;14.9;40.84766;961.6088;;;;
2019/04/16 19:06:43;;;;;;;10.6;8.1;;;;;;;14.86;41.37891;961.6481;;;;
2019/04/16 19:09:53;;;;;;;10.5;7.9;;;;;;;14.9;40.52148;961.635;;;;
2019/04/16 19:13:04;;;;;;;11.1;7.7;;;;;;;14.81;41.04883;961.7267;;;;
2019/04/16 19:16:14;;;;;;;11.2;8.1;;;;;;;14.7;41.94434;961.7383;;;;
2019/04/16 19:19:23;;;;;;;10.2;7.8;;;;;;;14.68;42.5;961.7618;;;;
2019/04/16 19:22:33;;;;;;;10.4;7.9;;;;;;;14.67;42.39453;961.7372;;;;
2019/04/16 19:25:43;;;;;;;11.3;7.6;;;;;;;14.57;41.79297;961.7252;;;;
2019/04/16 19:28:53;;;;;;;9.6;7.7;;;;;;;14.52;43.14648;961.7608;;;;
2019/04/16 19:32:03;;;;;;;13.4;9;;;;;;;14.43;43.0332;961.8656;;;;
2019/04/16 19:35:13;;;;;;;11.6;9.3;;;;;;;14.35;45.45313;961.8641;;;;
2019/04/16 19:38:23;;;;;;;12.7;9.5;;;;;;;14.22;43.95313;961.877;;;;
2019/04/16 19:41:33;;;;;;;13.2;9.8;;;;;;;14.27;46.84766;961.8727;;;;
2019/04/16 19:44:43;;;;;;;14.8;10.2;;;;;;;14.29;43.44824;961.9406;;;;
2019/04/16 19:47:53;;;;;;;11.5;9.4;;;;;;;14.26;42.76074;961.9305;;;;
2019/04/16 19:51:03;;;;;;;13.2;9.7;;;;;;;14.28;43.30957;961.884;;;;
2019/04/16 19:54:13;;;;;;;13.8;10.2;;;;;;;14.26;44.1543;961.9437;;;;
2019/04/16 19:57:23;;;;;;;11.8;9.5;;;;;;;14.23;43.72168;961.9771;;;;
2019/04/16 20:00:33;;;;;;;13.1;9.4;;;;;;;14.16;42.94824;962.0363;;;;
2019/04/16 20:03:43;;;;;;;12.8;9.2;;;;;;;14.13;44.69824;962.0525;;;;
2019/04/16 20:06:53;;;;;;;12.7;10;;;;;;;14.02;44.3623;962.08;;;;
2019/04/16 20:10:03;;;;;;;12;9.3;;;;;;;13.95;43.6123;962.1089;;;;
2019/04/16 20:13:13;;;;;;;14.7;9.6;;;;;;;13.96;44.77344;962.1343;;;;
2019/04/16 20:16:23;;;;;;;12.8;9.5;;;;;;;13.86;44.55469;962.1309;;;;
2019/04/16 20:19:44;;;;;;;10.8;9.2;;;;;;;13.87;47.69727;962.126;;;;
2019/04/16 20:22:48;;;;;;;12.7;9.4;;;;;;;13.82;46.5791;962.1347;;;;
2019/04/16 20:25:57;;;;;;;13.4;10.2;;;;;;;13.79;47.8623;962.1161;;;;